Tiempo atmosférico en la estación meteorológica de Alajar, Huelva (572 m.)



Fecha
DESCASC
Temp. máxima en grados centígrados (hora)
DESCASC
Temp. mínima en grados centígrados (hora)
DESCASC
Temp. media en grados centígrados
DESCASC
Racha de viento máxima en m/sg (hora)
DESCASC
Velocidad máxima media en intervalos de 10 minutos(hora)
DESCASC
Precipitaciones diarias en mm
DESCASC
Precipitaciones de 00:00 a 06:00 en mm
DESCASC
Precipitaciones de 06:00 a 12:00 en mm
DESCASC
Precipitaciones de 12:00 a 18:00 en mm
DESCASC
Precipitaciones de 18:00 a 24:00 en mm
DESCASC
13-06-2019 26.5 (15:40) 9.6 (07:30) 18.1 13.61 (00:40) 8.61 (00:20) 0 0 0 0 0
12-06-2019 28.8 (16:10) 14.9 (07:00) 21.8 11.67 (03:50) 8.61 (04:10) 0 0 0 0 0
11-06-2019 25.5 (17:40) 9.8 (06:30) 17.7 16.94 (04:10) 11.67 (04:10) 0 0 0 0 0
10-06-2019 26.1 (17:20) 11.1 (06:50) 18.6 15.56 (23:59) 9.72 (23:59) 0 0 0 0 0
09-06-2019 25.4 (16:10) 12.9 (00:00) 19.1 11.94 (01:20) 7.5 (01:20) 0 0 0 0 0
08-06-2019 29.3 (18:10) 13.4 (00:00) 21.3 14.17 (04:00) 9.72 (03:00) 0 0 0 0 0
07-06-2019 22.9 (17:20) 9.3 (00:00) 16.1 14.72 (03:30) 9.17 (04:40) 0.4 0.4 0 0 0
06-06-2019 24 (16:30) 9.8 (00:00) 16.9 -- (--) -- (--) 0 0 0 0 0
05-06-2019 21.5 (18:10) 10.3 (00:00) 15.9 -- (--) -- (--) 0 0 0 0 0
04-06-2019 27.4 (16:00) 14.7 (00:00) 21 14.17 (00:20) 10.56 (01:00) 0 0 0 0 0
03-06-2019 -- (--) -- (--) -- -- (--) -- (--) 0 0 0 0 0
02-06-2019 34.6 (16:50) 15.5 (00:00) 25 8.89 (18:50) 5 (19:00) 0 0 0 0 0
01-06-2019 33.5 (17:20) 16.8 (00:00) 25.1 9.17 (16:20) 4.44 (16:20) 0 0 0 0 0
31-05-2019 32.3 (16:00) 17.1 (00:00) 24.7 10.83 (06:10) 5.28 (06:40) 0 0 0 0 0
30-05-2019 -- (--) -- (--) -- -- (--) -- (--) -- -- -- -- 0
29-05-2019 -- (--) -- (--) -- -- (--) -- (--) -- -- -- -- --
28-05-2019 -- (--) -- (--) -- -- (--) -- (--) -- 0 -- -- --
27-05-2019 32.2 (16:50) 18.9 (00:00) 25.6 10 (16:30) 5.83 (04:00) 0 0 0 0 0
26-05-2019 30.3 (18:00) 17.4 (00:00) 23.8 9.72 (16:00) 5.56 (05:00) 0 0 0 0 0
25-05-2019 27.6 (16:40) 16.4 (00:00) 22 12.22 (00:30) 8.33 (02:30) 0 0 0 0 0
24-05-2019 26.6 (18:40) 11.3 (00:00) 19 17.5 (06:00) 12.78 (06:00) 0 0 0 0 0
23-05-2019 29.5 (16:40) 17.5 (00:00) 23.5 14.17 (23:59) 10 (04:00) 0 0 0 0 0
22-05-2019 28.6 (16:00) 14.8 (00:00) 21.7 14.17 (01:20) 10.28 (02:50) 0 0 0 0 0
21-05-2019 25.7 (16:10) 11.1 (06:00) 18.4 15.83 (06:40) 11.67 (06:40) 0 0 0 0 0
20-05-2019 24.7 (17:00) 9.7 (06:50) 17.2 11.67 (01:30) 7.78 (01:10) 0 0 0 0 0
19-05-2019 22.6 (17:00) 8.5 (00:00) 15.6 13.33 (00:40) 8.89 (00:40) 0 0 0 0 0
18-05-2019 18.9 (16:50) 7.5 (00:00) 13.2 16.11 (03:50) 10.28 (01:20) 0 0 0 0 0
17-05-2019 18.7 (17:10) 7.8 (00:00) 13.3 20.83 (07:50) 13.06 (07:50) 0 0 0 0 0

Gráficas

Temp. máximas Temp. mínimas Temp. medias Precipitaciones Rachas de viento máximas Velocidades máximas media en intervalos de 10 minutos

Datos horarios

Fecha y hora oficial Temperatura (ºC) Velocidad del viento (km/h) Dirección del viento Racha (km/h) Dirección de racha Precipitación (mm) Presión (hPa) Tendencia (hPa) Humedad (%)
2019-06-15 23:00:00 20.2 24 Norte 41 Norte 0 952 0.6 32
2019-06-15 22:00:00 21 19 Norte 36 Nordeste 0 951.4 -0.1 31
2019-06-15 21:00:00 22.8 20 Norte 32 Norte 0 951.4 -0.4 27
2019-06-15 20:00:00 24.4 16 Norte 24 Norte 0 951.4 -0.8 23
2019-06-15 19:00:00 25.3 12 Norte 22 Nordeste 0 951.5 -1.1 22
2019-06-15 18:00:00 25.9 8 Noroeste 26 Nordeste 0 951.8 -1.2 22
2019-06-15 17:00:00 25.7 9 Norte 25 Norte 0 952.2 -1.3 23
2019-06-15 16:00:00 24.7 10 Norte 26 Norte 0 952.6 -1.1 25
2019-06-15 15:00:00 23.3 6 Noroeste 26 Noroeste 0 953 -0.8 29
2019-06-15 14:00:00 23.2 7 Oeste 23 Norte 0 953.5 -0.4 31
2019-06-15 13:00:00 22.1 6 Sur 17 Norte 0 953.7 -0.3 33
2019-06-15 12:00:00 19.7 8 Norte 23 Norte 0 953.8 0.4 38
2019-06-15 11:00:00 17.6 13 Norte 23 Nordeste 0 953.9 0.9 44
2019-06-15 10:00:00 16 10 Nordeste 25 Norte 0 954 1.3 56
2019-06-15 09:00:00 13.6 14 Nordeste 29 Nordeste 0 953.4 0.8 68
2019-06-15 08:00:00 11.3 14 Norte 36 Nordeste 0 953 0.6 78
2019-06-15 07:00:00 10.9 28 Norte 40 Nordeste 0 952.7 0.2 80
2019-06-15 06:00:00 11 23 Norte 44 Nordeste 0 952.6 -0.3 81
2019-06-15 05:00:00 11.1 28 Norte 50 Nordeste 0 952.4 -0.6 83
2019-06-15 04:00:00 11.8 28 Norte 43 Nordeste 0 952.5 -0.8 75
2019-06-15 03:00:00 12.6 22 Norte 43 Norte 0 952.9 -0.1 69
2019-06-15 02:00:00 13.1 23 Norte 39 Norte 0 953 0.5 61
2019-06-15 01:00:00 13.7 21 Norte 35 Norte 0 953.3 1.3 57
2019-06-15 00:00:00 14.3 20 Norte 37 Norte 0 953 1.5 54
2019-06-14 23:00:00 15 13 Norte 24 Noroeste 0 952.5 1.6 50
2019-06-14 22:00:00 16.3 13 Noroeste 23 Noroeste 0 952 1.3 44
2019-06-14 21:00:00 18.1 10 Norte 23 Noroeste 0 951.5 0.8 38
2019-06-14 20:00:00 19.8 13 Noroeste 32 Noroeste 0 950.9 0.2 36
2019-06-14 19:00:00 20.6 11 Noroeste 32 Noroeste 0 950.7 -0.1 34
2019-06-14 18:00:00 20.9 15 Noroeste 38 Noroeste 0 950.7 -0.3 33
2019-06-14 17:00:00 20.1 15 Noroeste 37 Noroeste 0 950.7 -0.2 34
2019-06-14 16:00:00 20.5 14 Noroeste 33 Noroeste 0 950.8 0.1 34
2019-06-14 15:00:00 17.7 15 Noroeste 36 Noroeste 0 951 0.9 41
2019-06-14 14:00:00 18.8 17 Noroeste 40 Noroeste 0 950.9 1.3 38
2019-06-14 13:00:00 17.9 17 Noroeste -- -- 0 950.7 1.9 39
2019-06-14 12:00:00 16.7 13 Norte 28 Sudoeste 0 950.1 2.1 42
2019-06-14 11:00:00 15.4 15 Norte 30 Norte 0 949.6 2.3 52
2019-06-14 10:00:00 13.9 15 Norte 32 Norte 0 948.8 1.8 55
2019-06-14 09:00:00 11.9 13 Norte 33 Noroeste 0 948 1.3 65
2019-06-14 08:00:00 10.7 22 Norte 42 Norte 0 947.3 1 70
2019-06-14 07:00:00 10.8 18 Norte 33 Norte 0 947 0.7 66
2019-06-14 06:00:00 11.5 17 Norte 35 Norte 0 946.7 0.2 63
2019-06-14 05:00:00 11.3 15 Norte 37 Noroeste 0 946.3 -0.3 67
2019-06-14 04:00:00 12 23 Norte 36 Noroeste 0 946.3 0 63
2019-06-14 03:00:00 12.7 28 Norte 44 Norte 0 946.5 0.4 59
2019-06-14 02:00:00 13.8 27 Norte 46 Norte 0 946.6 0.9 54
2019-06-14 01:00:00 15.1 26 Norte 48 Norte 0 946.3 0.8 49
2019-06-14 00:00:00 16.6 24 Norte 37 Noroeste 0 946.1 1.1 45
2019-06-13 23:00:00 17.7 17 Noroeste 28 Noroeste 0 945.7 1.5 35
2019-06-13 22:00:00 18.7 12 Noroeste 18 Noroeste 0 945.5 1.6 31
2019-06-13 21:00:00 21.4 10 Noroeste 29 Noroeste 0 945 0.8 26
2019-06-13 20:00:00 24.4 11 Oeste 27 Sudoeste 0 944.2 -0.1 21
2019-06-13 19:00:00 25 15 Noroeste 30 Oeste 0 943.9 -0.4 20
2019-06-13 18:00:00 25.8 12 Sudoeste 27 Oeste 0 944.2 -0.2 21
2019-06-13 17:00:00 26.2 11 Oeste 35 Sudoeste 0 944.3 -0.5 21
2019-06-13 16:00:00 25.5 17 Sudoeste 31 Sudoeste 0 944.3 -0.7 24
2019-06-13 15:00:00 25.2 11 Sur 28 Sudoeste 0 944.4 -0.7 24
2019-06-13 14:00:00 25.1 13 Sudoeste 28 Sur 0 944.8 -0.4 24
2019-06-13 13:00:00 24.1 10 Sudoeste 23 Sudoeste 0 945 -0.1 23
2019-06-13 12:00:00 22.3 8 Sur 22 Sur 0 945.1 0.3 26
2019-06-13 11:00:00 20.7 12 Sudoeste 22 Sudoeste 0 945.2 0.7 29
2019-06-13 10:00:00 19.3 4 Sudoeste 8 Sur 0 945.1 0.8 26
2019-06-13 09:00:00 15.5 0 Calma 8 Este 0 944.8 0.7 39
2019-06-13 08:00:00 10.4 3 Norte 9 Oeste 0 944.5 0.3 52
2019-06-13 07:00:00 10 9 Oeste 13 Oeste 0 944.3 0 62
2019-06-13 06:00:00 11.5 4 Oeste 10 Noroeste 0 944.1 -0.2 49
2019-06-13 05:00:00 12.8 5 Norte 27 Noroeste 0 944.2 -0.5 44
2019-06-13 04:00:00 14.6 17 Norte 45 Norte 0 944.3 -0.5 39
2019-06-13 03:00:00 14.5 26 Norte 45 Nordeste 0 944.3 -0.6 47
2019-06-13 02:00:00 14.9 23 Norte 47 Norte 0 944.7 -0.1 46
2019-06-13 01:00:00 16.5 27 Norte 49 Norte 0 944.8 0.5 42
2019-06-13 00:00:00 18.3 26 Norte 39 Norte 0 944.9 0.9 34
2019-06-12 23:00:00 19.7 10 Noroeste 20 Noroeste 0 944.8 1 27
2019-06-12 22:00:00 21.1 7 Noroeste 23 Noroeste 0 944.3 0.6 41
2019-06-12 21:00:00 24.6 6 Noroeste 27 Oeste 0 944 -0.1 17
2019-06-12 20:00:00 26.4 12 Noroeste 29 Noroeste 0 943.8 -0.6 14
2019-06-12 19:00:00 27.6 13 Noroeste 33 Noroeste 0 943.7 -1.3 15
2019-06-12 18:00:00 27.9 14 Sudoeste 31 Sudoeste 0 944.1 -1.3 21
2019-06-12 17:00:00 28.3 11 Oeste 27 Sudoeste 0 944.4 -1.7 21
2019-06-12 16:00:00 28.1 9 Sudoeste 29 Sudoeste 0 945 -1.6 21
2019-06-12 15:00:00 26.5 12 Sur 27 Sur 0 945.4 -1.4 21
2019-06-12 14:00:00 26.8 6 Sudoeste 19 Sudoeste 0 946.1 -0.9 21
2019-06-12 13:00:00 25.6 10 Sudoeste 19 Sur 0 946.6 -0.2 22
2019-06-12 12:00:00 24.2 4 Sudoeste 21 Sudeste 0 946.8 0.3 24
2019-06-12 11:00:00 23 6 Este 19 Sudeste 0 947 0.9 24
2019-06-12 10:00:00 21.6 11 Sudeste 20 Sudeste 0 946.8 1 26
2019-06-12 09:00:00 19.7 6 Este 14 Este 0 946.5 1.1 31
2019-06-12 08:00:00 16.1 9 Nordeste 21 Nordeste 0 946.1 0.7 30
2019-06-12 07:00:00 15 11 Nordeste 34 Norte 0 945.8 0.3 27
2019-06-12 06:00:00 15.4 18 Norte 38 Norte 0 945.4 -0.4 25
2019-06-12 05:00:00 16.3 25 Norte 40 Norte 0 945.4 -1 24
2019-06-12 04:00:00 16.9 30 Norte 42 Norte 0 945.5 -1.3 23
2019-06-12 03:00:00 17.1 27 Nordeste 41 Nordeste 0 945.8 -1.2 22
2019-06-12 02:00:00 17.6 26 Nordeste 35 Nordeste 0 946.4 -0.4 21
2019-06-12 01:00:00 17.7 22 Nordeste 35 Nordeste 0 946.8 0.5 21
2019-06-12 00:00:00 16.9 19 Nordeste 32 Norte 0 947 1 25
2019-06-11 23:00:00 18.8 10 Nordeste 23 Este 0 946.8 1.2 24
2019-06-11 22:00:00 19.7 10 Norte 20 Nordeste 0 946.3 0.7 26
2019-06-11 21:00:00 22.1 10 Norte 33 Noroeste 0 946 0.1 19
2019-06-11 20:00:00 23.8 9 Norte 25 Norte 0 945.6 -0.4 18
2019-06-11 19:00:00 23.8 21 Norte -- -- 0 945.6 -0.8 21
2019-06-11 18:00:00 24.4 19 Norte 34 Noroeste 0 945.9 -0.8 22
2019-06-11 17:00:00 24.8 14 Norte 36 Norte 0 946 -0.9 24
2019-06-11 16:00:00 24.4 11 Norte 36 Noroeste 0 946.4 -0.8 29
2019-06-11 15:00:00 23.4 13 Noroeste 35 Norte 0 946.7 -0.5 31
2019-06-11 14:00:00 22.3 9 Norte 33 Norte 0 946.9 -0.4 39
2019-06-11 13:00:00 20.6 13 Norte 32 Norte 0 947.2 0.1 42
2019-06-11 12:00:00 19 14 Norte 32 Norte 0 947.2 0.5 46
2019-06-11 11:00:00 16.7 13 Norte 35 Nordeste 0 947.3 0.8 52
2019-06-11 10:00:00 15.2 9 Norte 32 Norte 0 947.1 0.2 55
2019-06-11 09:00:00 12.7 9 Norte 30 Norte 0 946.7 0 64
2019-06-11 08:00:00 10.5 13 Norte 37 Noroeste 0 946.5 -0.3 72
2019-06-11 07:00:00 9.9 6 Sur 45 Nordeste 0 946.9 -0.3 73
2019-06-11 06:00:00 10.4 30 Norte 48 Nordeste 0 946.7 -1.5 72
2019-06-11 05:00:00 11.7 31 Norte 61 Norte 0 946.8 -2.2 61
2019-06-11 04:00:00 12.1 40 Norte 60 Norte 0 947.2 -2.4 58
2019-06-11 03:00:00 13.4 5 Sur 33 Norte 0 948.2 -1.3 46
2019-06-11 02:00:00 14.4 7 Oeste 32 Norte 0 949 -0.5 42
2019-06-11 01:00:00 15.8 24 Norte 57 Norte 0 949.6 0.5 42
2019-06-11 00:00:00 17.6 35 Norte 56 Norte 0 949.5 0.5 37
2019-06-10 23:00:00 19.2 18 Norte 30 Norte 0 949.5 0.5 35
2019-06-10 22:00:00 20.7 10 Noroeste 25 Noroeste 0 949.1 -0.1 31
2019-06-10 21:00:00 22.9 12 Noroeste 27 Noroeste 0 949 -0.7 27
2019-06-10 20:00:00 24.4 15 Norte 27 Norte 0 949 -1 25
2019-06-10 19:00:00 25 15 Norte 30 Norte 0 949.2 -1.2 24
2019-06-10 18:00:00 24.9 14 Norte -- -- 0 949.7 -1.2 24
2019-06-10 17:00:00 24.9 14 Norte 28 Noroeste 0 950 -1.6 26
2019-06-10 16:00:00 24.2 11 Norte 32 Norte 0 950.4 -1.5 29
2019-06-10 15:00:00 23.4 13 Norte 29 Noroeste 0 950.9 -1.2 32
2019-06-10 14:00:00 22 13 Norte 31 Noroeste 0 951.6 -0.8 35
2019-06-10 13:00:00 21.5 12 Noroeste 27 Nordeste 0 951.9 -0.5 36
2019-06-10 12:00:00 20.3 8 Norte 30 Norte 0 952.1 0.1 39
2019-06-10 11:00:00 17.3 21 Norte 31 Norte 0 952.4 0.7 41
2019-06-10 10:00:00 16.5 10 Norte 35 Norte 0 952.4 1 51
2019-06-10 09:00:00 14.6 5 Noroeste 30 Norte 0 952 0.8 60
2019-06-10 08:00:00 11.9 17 Norte 39 Norte 0 951.7 0.5 77
2019-06-10 07:00:00 11.3 22 Norte 38 Nordeste 0 951.4 -0.7 84
2019-06-10 06:00:00 11.6 23 Norte 46 Norte 0 951.2 -1.2 83
2019-06-10 05:00:00 12.3 33 Norte 49 Norte 0 951.2 -1.4 81
2019-06-10 04:00:00 12.7 31 Norte 49 Nordeste 0 952.1 -0.7 80
2019-06-10 03:00:00 13.7 28 Norte 49 Norte 0 952.4 -0.6 73
2019-06-10 02:00:00 14.5 31 Norte 50 Norte 0 952.6 -0.2 69
2019-06-10 01:00:00 15.1 31 Norte 50 Norte 0 952.8 0.5 68
2019-06-10 00:00:00 15.9 24 Norte 41 Norte 0 953 1.2 66
2019-06-09 23:00:00 17.4 24 Norte 43 Noroeste 0 952.8 1.2 59
2019-06-09 22:00:00 19.4 12 Noroeste 28 Noroeste 0 952.3 1 41
2019-06-09 21:00:00 21 15 Norte 34 Norte 0 951.8 0.4 38
2019-06-09 20:00:00 22.6 19 Norte 35 Norte 0 951.6 -0.1 33
2019-06-09 19:00:00 24.8 14 Oeste -- -- 0 951.3 -0.5 26
2019-06-09 18:00:00 24.4 18 Norte -- -- 0 951.4 -0.8 25
2019-06-09 17:00:00 24.1 17 Norte 38 Noroeste 0 951.7 -0.9 24
2019-06-09 16:00:00 24 12 Norte 30 Norte 0 951.8 -1 22
2019-06-09 15:00:00 23.8 10 Noroeste 26 Noroeste 0 952.2 -0.5 23
2019-06-09 14:00:00 23.2 12 Norte 24 Norte 0 952.6 -0.2 24
2019-06-09 13:00:00 21.9 10 Norte 26 Norte 0 952.8 0.1 27
2019-06-09 12:00:00 20.4 10 Norte 26 Nordeste 0 952.7 0.3 23
2019-06-09 11:00:00 19.9 10 Nordeste 24 Nordeste 0 952.8 0.9 21
2019-06-09 10:00:00 17.1 14 Nordeste 22 Nordeste 0 952.7 1.1 35
2019-06-09 09:00:00 15.8 2 Oeste 6 Noroeste 0 952.4 0.8 42
2019-06-09 08:00:00 13 4 Oeste 15 Norte 0 951.9 0.2 44
2019-06-09 07:00:00 14.5 9 Norte 16 Norte 0 951.6 -0.4 33
2019-06-09 06:00:00 14.7 5 Norte 31 Norte 0 951.6 -0.5 47
2019-06-09 05:00:00 15.3 16 Norte 29 Noroeste 0 951.7 -0.5 49
2019-06-09 04:00:00 13.9 15 Norte 41 Norte 0 952 -0.5 52
2019-06-09 03:00:00 14.3 25 Norte 42 Nordeste 0 952.1 -0.3 53
2019-06-09 02:00:00 15.6 23 Norte 43 Norte 0 952.2 -0.1 52
2019-06-09 01:00:00 17.4 22 Norte 40 Norte 0 952.5 0.8 48
2019-06-09 00:00:00 18.3 18 Norte 26 Norte 0 952.4 1.5 41
2019-06-08 23:00:00 18.3 4 Noroeste 12 Oeste 0 952.3 1.9 30
2019-06-08 22:00:00 21.3 7 Sudoeste 25 Sudoeste 0 951.7 1.4 25
2019-06-08 21:00:00 24.5 9 Oeste 21 Sudoeste 0 950.9 0.4 16
2019-06-08 20:00:00 26.3 13 Sudoeste 22 Sudoeste 0 950.4 -0.4 15
2019-06-08 19:00:00 27.8 9 Noroeste 23 Sudoeste 0 950.3 -0.7 14
2019-06-08 18:00:00 28.5 10 Oeste 23 Sudoeste 0 950.5 -1.1 14
2019-06-08 17:00:00 28.4 17 Sudoeste 28 Sudoeste 0 950.8 -1 13
2019-06-08 16:00:00 27.6 8 Noroeste 24 Sur 0 951 -1.1 15
2019-06-08 15:00:00 27.3 12 Sudoeste 26 Sudoeste 0 951.6 -0.5 15
2019-06-08 14:00:00 26.9 8 Sur 26 Sudoeste 0 951.8 -0.3 16
2019-06-08 13:00:00 25.3 7 Noroeste 17 Oeste 0 952.1 0.1 19
2019-06-08 12:00:00 24.3 6 Noroeste 20 Oeste 0 952.1 0.1 20
2019-06-08 11:00:00 23.4 8 Sur 16 Sudoeste 0 952.1 0.2 22
2019-06-08 10:00:00 21.7 3 Nordeste 9 Este 0 952 0.4 25
2019-06-08 09:00:00 18.1 3 Norte 13 Nordeste 0 952 0.5 36
2019-06-08 08:00:00 14.6 8 Nordeste 13 Nordeste 0 951.9 0.5 41
2019-06-08 07:00:00 13.9 9 Nordeste 30 Nordeste 0 951.6 -0.1 43
2019-06-08 06:00:00 13.9 21 Norte 44 Norte 0 951.5 -0.4 46
2019-06-08 05:00:00 13.7 32 Norte 49 Norte 0 951.4 -1 48
2019-06-08 04:00:00 13.9 35 Norte 51 Nordeste 0 951.7 -0.9 48
2019-06-08 03:00:00 14.3 35 Norte 49 Norte 0 951.9 -1 45
2019-06-08 02:00:00 14.7 33 Norte 48 Norte 0 952.4 -0.2 43
2019-06-08 01:00:00 15.6 28 Norte 40 Norte 0 952.6 0.4 39
2019-06-08 00:00:00 15.7 19 Norte 30 Norte 0 952.9 0.9 38
2019-06-07 23:00:00 16.1 18 Norte 30 Norte 0 952.6 1 37
2019-06-07 22:00:00 17.3 14 Norte 23 Norte 0 952.2 0.7 35
2019-06-07 21:00:00 19.9 10 Norte 21 Norte 0 952 0.5 29
2019-06-07 20:00:00 21.3 12 Nordeste 31 Norte 0 951.6 -0.1 26
2019-06-07 19:00:00 21.9 12 Nordeste 29 Nordeste 0 951.5 -0.4 26
2019-06-07 18:00:00 22.3 11 Norte 25 Norte 0 951.5 -0.5 24
2019-06-07 17:00:00 21.5 10 Nordeste 24 Norte 0 951.7 -0.3 25
2019-06-07 16:00:00 21 15 Nordeste 30 Noroeste 0 951.9 -0.1 26
2019-06-07 15:00:00 20.1 13 Nordeste 31 Norte 0 952 0.3 28
2019-06-07 14:00:00 18.2 17 Norte -- -- 0 952 0.5 33
2019-06-07 13:00:00 17 19 Norte -- -- 0 952 1 36
2019-06-07 12:00:00 15.5 17 Norte 36 Norte 0 951.7 1.6 47
2019-06-07 11:00:00 13.5 11 Norte 30 Norte 0 951.5 2.5 55
2019-06-07 10:00:00 12.4 15 Norte 36 Noroeste 0 951 2.8 67
2019-06-07 09:00:00 11 11 Norte 42 Nordeste 0 950.1 2 78
2019-06-07 08:00:00 9.6 15 Norte 51 Nordeste 0 949 1.1 86
2019-06-07 07:00:00 9.6 27 Norte 52 Norte 0 948.2 0.4 88
2019-06-07 06:00:00 10.1 19 Norte 50 Nordeste 0.2 948.1 0 89
2019-06-07 05:00:00 10.3 31 Norte 51 Norte 0 947.9 0 86
2019-06-07 04:00:00 10.6 26 Norte 53 Norte 0 947.8 0.1 85
2019-06-07 03:00:00 11.1 25 Norte -- -- 0.2 948.1 0.5 94
2019-06-07 02:00:00 13.5 8 Oeste 26 Oeste 0 947.9 0.8 97
2019-06-07 01:00:00 15.3 10 Oeste 24 Noroeste 0 947.7 1.3 69
2019-06-07 00:00:00 15.3 12 Noroeste 31 Noroeste 0 947.6 1.6 66
2019-06-06 23:00:00 15.8 14 Noroeste 30 Oeste 0 947.1 1.6 62
2019-06-06 22:00:00 17 13 Noroeste 33 Noroeste 0 946.4 0.8 55
2019-06-06 21:00:00 20 11 Oeste 30 Oeste 0 946 0 41
2019-06-06 20:00:00 21.8 15 Oeste 33 Oeste 0 945.5 -0.9 35
2019-06-06 19:00:00 23 15 Oeste -- -- 0 945.6 -1.2 32
2019-06-06 18:00:00 23.2 13 Oeste -- -- 0 946 -1.2 30
2019-06-06 17:00:00 23.4 13 Oeste -- -- 0 946.4 -1.1 26
2019-06-06 16:00:00 22.9 16 Sudoeste -- -- 0 946.8 -1 24
2019-06-06 15:00:00 23.1 15 Sudoeste 31 Sudoeste 0 947.2 -0.8 23
2019-06-06 14:00:00 21.8 15 Sudoeste 29 Sudoeste 0 947.5 -0.6 24
2019-06-06 13:00:00 20.6 8 Sudoeste 26 Sudoeste 0 947.8 -0.4 23
2019-06-06 12:00:00 19.1 12 Sur 21 Sudoeste 0 948 -0.2 27
2019-06-06 11:00:00 17.5 9 Sur 17 Sur 0 948.1 0 32
2019-06-06 10:00:00 15.5 5 Norte 21 Nordeste 0 948.2 0.2 34
2019-06-06 09:00:00 12.8 17 Norte 44 Norte 0 948.2 0.1 44
2019-06-06 08:00:00 10.7 31 Norte 46 Norte 0 948.1 -0.3 51
2019-06-06 07:00:00 10.1 31 Norte 50 Nordeste 0 948 -0.8 60
2019-06-06 06:00:00 10 33 Norte 50 Norte 0 948.1 -1.1 64
2019-06-06 05:00:00 10.5 34 Norte 49 Nordeste 0 948.4 -1.2 62
2019-06-06 04:00:00 11.2 27 Norte 45 Norte 0 948.8 -0.9 58
2019-06-06 03:00:00 11.8 31 Norte 49 Norte 0 949.2 -0.7 54
2019-06-06 02:00:00 12.6 28 Norte 46 Norte 0 949.6 -0.1 51
2019-06-06 01:00:00 13.7 26 Norte 42 Norte 0 949.7 0.4 43
2019-06-06 00:00:00 14.7 17 Norte 27 Norte 0 949.9 0.7 39
2019-06-05 23:00:00 15.3 13 Norte 19 Norte 0 949.7 0.9 39
2019-06-05 22:00:00 15 12 Norte 17 Noroeste 0 949.3 0.2 42
2019-06-05 21:00:00 18.2 10 Norte 31 Noroeste 0 949.2 -0.2 34
2019-06-05 20:00:00 19.6 13 Noroeste 32 Norte 0 948.8 -0.9 30
2019-06-05 19:00:00 20.6 12 Norte 32 Norte 0 949.1 -0.9 31
2019-06-05 18:00:00 21.4 10 Noroeste -- -- 0 949.4 -1 28
2019-06-05 17:00:00 20.5 15 Noroeste -- -- 0 949.7 -0.9 32
2019-06-05 16:00:00 19 23 Norte 39 Norte 0 950 -0.9 34
2019-06-05 15:00:00 18.3 -- -- -- -- 0 950.4 -0.4 38
2019-06-05 14:00:00 18.3 18 Norte -- -- 0 950.6 -0.1 39
2019-06-05 13:00:00 17.2 15 Norte 44 Norte 0 950.9 0.6 43
2019-06-05 12:00:00 15.8 22 Norte 41 Norte 0 950.8 0.9 45
2019-06-05 11:00:00 14.1 17 Norte 46 Norte 0 950.7 1.5 55
2019-06-05 10:00:00 13.2 19 Norte 38 Norte 0 950.3 1.7 66
2019-06-05 09:00:00 10.8 21 Norte 46 Norte 0 949.9 1.8 77
2019-06-05 08:00:00 10.4 19 Norte 43 Norte 0 949.2 1.2 83
2019-06-05 07:00:00 10.5 25 Norte 53 Norte 0 948.6 0.5 81
2019-06-05 06:00:00 10.5 28 Norte 47 Norte 0 948.1 -0.1 83
2019-06-05 05:00:00 10.8 10 Noroeste 33 Norte 0 948 -0.4 80
2019-06-05 04:00:00 11 29 Norte 48 Norte 0 948.1 0 77
2019-06-05 03:00:00 11.8 17 Norte 44 Norte 0 948.2 0.8 68
2019-06-05 02:00:00 13 7 Noroeste 31 Norte 0 948.4 1.8 59
2019-06-05 01:00:00 13.9 12 Norte 38 Noroeste 0 948.1 1.9 60
2019-06-05 00:00:00 15.4 8 Oeste 43 Norte 0 947.4 1.3 63
2019-06-04 23:00:00 16.2 25 Norte 48 Norte 0 946.6 0.6 67
2019-06-04 22:00:00 16.9 27 Norte 49 Norte 0 946.2 0.1 62
2019-06-04 21:00:00 18 27 Norte 50 Norte 0 946.1 -0.3 68
2019-06-04 20:00:00 20.1 27 Norte 45 Norte 0 946 -0.5 61
2019-06-04 19:00:00 24.3 16 Noroeste 40 Noroeste 0 946.1 -0.9 41
2019-06-04 18:00:00 25.6 20 Noroeste -- -- 0 946.4 -1.1 40
2019-06-04 17:00:00 26.1 15 Noroeste 32 Norte 0 946.5 -1.5 39
2019-06-04 16:00:00 27.4 11 Oeste 26 Oeste 0 947 -1.5 36
2019-06-04 15:00:00 25 12 Norte 29 Norte 0 947.5 -1 40
2019-06-04 14:00:00 25.9 8 Oeste 24 Norte 0 948 -0.6 43
2019-06-04 13:00:00 23.3 13 Norte 23 Noroeste 0 948.5 -0.1 46
2019-06-04 12:00:00 21.9 8 Norte 23 Norte 0 948.5 0.2 51
2019-06-04 11:00:00 19.6 12 Norte 35 Norte 0 948.6 0.6 58
2019-06-04 10:00:00 17.1 22 Norte 47 Nordeste 0 948.6 0.9 72
2019-06-04 09:00:00 15 25 Norte 45 Nordeste 0 948.3 0.8 87
2019-06-04 08:00:00 15.1 5 Norte 20 Norte 0 948 0.1 80
2019-06-04 07:00:00 15.8 9 Norte 17 Norte 0 947.7 -0.5 77
2019-06-04 06:00:00 16.3 6 Norte 15 Norte 0 947.5 -1 74
2019-06-04 05:00:00 16.4 3 Sudoeste 11 Norte 0 947.9 -1 75
2019-06-04 04:00:00 17.6 6 Noroeste 26 Norte 0 948.2 -1 74
2019-06-04 03:00:00 18.2 13 Norte 39 Noroeste 0 948.5 -0.9 66
2019-06-04 02:00:00 19.7 20 Noroeste 50 Noroeste 0 948.9 -0.6 39
2019-06-04 01:00:00 20.9 38 Norte 51 Norte 0 949.2 -0.2 30
2019-06-04 00:00:00 21.5 33 Norte 47 Norte 0 949.4 0.2 31
2019-06-03 23:00:00 23.2 22 Norte 35 Norte 0 949.5 0.6 30
2019-06-03 22:00:00 23.9 7 Noroeste 18 Oeste 0 949.4 0.5 31
2019-06-03 21:00:00 27.3 10 Sudoeste 30 Oeste 0 949.2 0 25
2019-06-03 20:00:00 30.7 15 Noroeste 27 Noroeste 0 948.9 -0.6 17
2019-06-03 19:00:00 32.4 12 Noroeste 30 Noroeste 0 948.9 -1.1 15
2019-06-03 18:00:00 33 13 Oeste -- -- 0 949.2 -1.6 15
2019-06-03 17:00:00 33.8 13 Sudoeste 28 Sudoeste 0 949.5 -2 14
2019-06-03 16:00:00 33.5 15 Sudoeste 26 Sudoeste 0 950 -1.9 14
2019-06-03 15:00:00 33.3 7 Oeste -- -- 0 950.8 -- 15
2019-06-03 14:00:00 33 -- -- -- -- 0 951.5 -0.4 16
2019-06-03 13:00:00 29.9 -- -- -- -- -- 951.9 0 20
2019-06-03 12:00:00 -- -- -- -- -- -- -- -- --
2019-06-03 11:00:00 26.7 10 Norte 15 Norte 0 951.9 0.7 21
2019-06-03 10:00:00 25.1 4 Sur 16 Nordeste 0 951.9 0.8 27
2019-06-03 09:00:00 23.4 11 Norte 22 Nordeste 0 951.3 0.3 28
2019-06-03 08:00:00 20.4 3 Norte 15 Sudoeste 0 951.2 -0.1 30
2019-06-03 07:00:00 19.5 6 Sudoeste 15 Sur 0 951.1 0 34
2019-06-03 06:00:00 17.9 3 Sur 10 Sur 0 951 -0.2 41
2019-06-03 05:00:00 18.4 3 Sudoeste 28 Noroeste 0 951.3 -0.1 40
2019-06-03 04:00:00 22.9 15 Norte 45 Nordeste 0 951.1 -1.1 24
2019-06-03 03:00:00 23.4 27 Norte 46 Norte 0 951.2 -1.2 29
2019-06-03 02:00:00 24.4 26 Norte 43 Norte 0 951.4 -0.7 26
2019-06-03 01:00:00 20.8 6 Sudeste 12 Sur 0 952.2 0.8 38
2019-06-03 00:00:00 20.9 2 Sur 11 Oeste 0 952.4 1.4 39
2019-06-02 23:00:00 23 5 Oeste 13 Oeste 0 952.1 1.7 33
2019-06-02 22:00:00 25.4 6 Oeste 19 Sudoeste 0 951.4 1.3 29
2019-06-02 21:00:00 28.5 9 Oeste 26 Sur 0 951 0.8 24
2019-06-02 20:00:00 30.7 16 Sudoeste 31 Sudoeste 0 950.4 0.1 21
2019-06-02 19:00:00 32.5 18 Sudoeste 32 Sudoeste 0 950.1 -0.7 19
2019-06-02 18:00:00 33.8 14 Sur 26 Sur 0 950.2 -1.4 16
2019-06-02 17:00:00 34.6 12 Sur 26 Sudeste 0 950.3 -2.1 15
2019-06-02 16:00:00 33.4 9 Nordeste 22 Este 0 950.8 -2 17
2019-06-02 15:00:00 33.2 7 Este 19 Sudeste 0 951.6 -1.1 18
2019-06-02 14:00:00 31.2 8 Sur 20 Sudoeste 0 952.4 -0.3 20
2019-06-02 13:00:00 30.6 8 Sudoeste 18 Sur 0 952.8 0.3 21
2019-06-02 12:00:00 28.4 5 Sur 11 Sudoeste 0 952.7 0.4 24
2019-06-02 11:00:00 27.1 4 Sudoeste 17 Sudoeste 0 952.7 0.6 26
2019-06-02 10:00:00 24.4 7 Oeste 17 Noroeste 0 952.5 0.6 27
2019-06-02 09:00:00 21 0 Calma 8 Noroeste 0 952.3 0.5 45
2019-06-02 08:00:00 16.9 5 Oeste 9 Noroeste 0 952.1 0.1 42
2019-06-02 07:00:00 15.8 3 Noroeste 6 Noroeste 0 951.9 -0.2 44
2019-06-02 06:00:00 15.7 3 Norte 13 Nordeste 0 951.8 -0.6 44
2019-06-02 05:00:00 15.7 5 Nordeste 12 Nordeste 0 952 -0.3 47
2019-06-02 04:00:00 16 2 Oeste 8 Nordeste 0 952.1 -0.3 49
2019-06-02 03:00:00 17 4 Este 11 Oeste 0 952.4 -0.1 46
2019-06-02 02:00:00 17.2 6 Oeste 14 Oeste 0 952.3 0.2 47
2019-06-02 01:00:00 18.8 5 Oeste 13 Noroeste 0 952.4 0.9 43
2019-06-02 00:00:00 20.2 3 Sudoeste 13 Oeste 0 952.5 1.5 41
2019-06-01 23:00:00 22 4 Norte 12 Noroeste 0 952.1 1.3 36
2019-06-01 22:00:00 24.7 6 Noroeste 18 Sudoeste 0 951.5 0.7 31
2019-06-01 21:00:00 28.8 8 Sur 25 Sur 0 951 -0.1 20
2019-06-01 20:00:00 30.8 11 Sur 25 Sur 0 950.8 -0.8 20
2019-06-01 19:00:00 31.9 9 Sur 21 Sur 0 950.8 -1.5 18
2019-06-01 18:00:00 32.4 13 Sur 27 Sur 0 951.1 -1.5 18
2019-06-01 17:00:00 32.9 10 Sudeste -- -- 0 951.6 -1.5 17
2019-06-01 16:00:00 32.5 12 Sudeste 31 Este 0 952.3 -1.2 18
2019-06-01 15:00:00 31.7 14 Sudeste 31 Sudeste 0 952.6 -1 17
2019-06-01 14:00:00 31.3 12 Sudeste 26 Este 0 953.1 -0.6 16
2019-06-01 13:00:00 29.8 12 Sudeste 27 Sudeste 0 953.5 -0.2 20
2019-06-01 12:00:00 28.3 10 Sudeste 28 Sur 0 953.6 0.2 22
2019-06-01 11:00:00 27.3 8 Este 22 Sudeste 0 953.7 0.7 27
2019-06-01 10:00:00 24.5 8 Sudeste 32 Este 0 953.7 0.9 31
2019-06-01 09:00:00 23 13 Este 27 Este 0 953.4 0.8 26
2019-06-01 08:00:00 20.5 8 Nordeste 17 Este 0 953 0.4 32
2019-06-01 07:00:00 18.8 10 Este 14 Este 0 952.8 0 35
2019-06-01 06:00:00 17.4 8 Nordeste 11 Nordeste 0 952.6 -0.5 41
2019-06-01 05:00:00 18.3 5 Nordeste 9 Nordeste 0 952.6 -0.9 40
2019-06-01 04:00:00 17.4 6 Nordeste 9 Nordeste 0 952.8 -0.7 42
2019-06-01 03:00:00 17.3 4 Norte 10 Nordeste 0 953.1 -0.4 44
2019-06-01 02:00:00 19.1 7 Este 13 Este 0 953.5 0.3 37
2019-06-01 01:00:00 20 10 Este 14 Este 0 953.5 1 35
2019-06-01 00:00:00 21.8 8 Este 13 Este 0 953.5 1.4 31
2019-05-31 23:00:00 22.4 7 Nordeste 12 Nordeste 0 953.2 1.3 31
2019-05-31 22:00:00 24.3 6 Nordeste 17 Sur 0 952.5 0.3 28
2019-05-31 21:00:00 27.7 10 Sur 18 Sur 0 952.1 -0.4 22
2019-05-31 20:00:00 29.9 9 Sur 22 Sudeste 0 951.9 -0.8 21
2019-05-31 19:00:00 30.6 16 Sur 28 Sur 0 952.2 -1.1 20
2019-05-31 18:00:00 31.5 15 Sur 29 Sudeste 0 952.5 -1.1 19
2019-05-31 17:00:00 32.2 12 Sudeste 28 Sur 0 952.7 -1.3 18
2019-05-31 16:00:00 32 14 Sudeste 35 Sur 0 953.3 -1.1 17
2019-05-31 15:00:00 31.1 13 Sudeste 33 Sudeste 0 953.6 -0.8 17
2019-05-31 14:00:00 29.9 17 Sudeste 32 Sudeste 0 954 -0.4 18
2019-05-31 13:00:00 28.1 15 Este 33 Sudeste 0 954.4 0 21
2019-05-31 12:00:00 27 14 Sudeste 32 Sudeste 0 954.4 0 24
2019-05-31 11:00:00 25.3 12 Este 33 Este 0 954.4 0 31
2019-05-31 10:00:00 23.1 13 Este 30 Este 0 954.4 0.3 31
2019-05-31 09:00:00 20.7 10 Este 23 Sudeste 0 954.4 0.5 34
2019-05-31 08:00:00 18.8 12 Este 31 Este 0 954.4 0.4 35
2019-05-31 07:00:00 18.8 12 Este 39 Este 0 954.1 -0.1 31
2019-05-31 06:00:00 19.8 14 Este 30 Este 0 953.9 -0.7 27
2019-05-31 05:00:00 18 9 Este 18 Este 0 954 -0.9 45
2019-05-31 04:00:00 17.2 5 Este 15 Este 0 954.2 -0.8 59
2019-05-31 03:00:00 18.2 6 Nordeste 18 Este 0 954.6 -0.5 55
2019-05-31 02:00:00 17.8 9 Este 14 Este 0 954.9 0.3 56
2019-05-31 01:00:00 18.4 4 Nordeste 11 Nordeste 0 955 1 54
2019-05-31 00:00:00 19.5 6 Nordeste 11 Nordeste 0 955.1 1.8 49
2019-05-30 23:00:00 21.1 8 Nordeste 12 Nordeste 0 954.6 1.8 45
2019-05-30 22:00:00 23.9 6 Este 15 Sur 0 954 1 38
2019-05-30 21:00:00 27.1 9 Sur 18 Sudeste 0 953.3 -0.1 30
2019-05-30 20:00:00 29.3 12 Sur 21 Sur 0 952.8 -0.9 26
2019-05-30 19:00:00 30.6 9 Sudeste 23 Sudeste 0 953 -1 23
2019-05-30 18:00:00 31 12 Sur 26 Sudeste 0 953.4 -- 23
2019-05-30 17:00:00 31.3 12 Sudeste 30 Sudeste 0 953.7 -- 21
2019-05-30 16:00:00 31.1 14 Sudeste -- -- -- 954 -1.3 22
2019-05-30 15:00:00 -- -- -- -- -- -- -- -- --
2019-05-30 14:00:00 -- -- -- -- -- -- -- -- --
2019-05-30 13:00:00 27.3 15 Sudeste -- -- -- 955.3 -- 28
2019-05-30 12:00:00 25.7 16 Sudeste -- -- -- 955.2 -- 31
2019-05-30 11:00:00 -- -- -- -- -- -- -- -- --
2019-05-30 10:00:00 -- -- -- -- -- -- -- -- --
2019-05-30 09:00:00 -- -- -- -- -- -- -- -- --
2019-05-30 08:00:00 -- -- -- -- -- -- 1018.8 -- --
2019-05-30 07:00:00 -- -- -- -- -- -- -- -- --
2019-05-30 06:00:00 -- -- -- -- -- -- -- -- --
2019-05-30 05:00:00 -- -- -- -- -- -- -- -- --
2019-05-30 04:00:00 -- -- -- -- -- -- -- -- --
2019-05-30 03:00:00 -- -- -- -- -- -- -- -- --
2019-05-30 02:00:00 -- -- -- -- -- -- -- -- --
2019-05-30 01:00:00 -- -- -- -- -- -- -- -- --
2019-05-30 00:00:00 -- -- -- -- -- -- -- -- --
2019-05-29 23:00:00 -- -- -- -- -- -- -- -- --
2019-05-29 22:00:00 -- -- -- -- -- -- -- -- --
2019-05-29 21:00:00 -- -- -- -- -- -- -- -- --
2019-05-29 20:00:00 -- -- -- -- -- -- -- -- --
2019-05-29 19:00:00 -- -- -- -- -- -- -- -- --
2019-05-29 18:00:00 -- -- -- -- -- -- -- -- --
2019-05-29 17:00:00 -- -- -- -- -- -- -- -- --
2019-05-29 16:00:00 -- -- -- -- -- -- -- -- --
2019-05-29 15:00:00 -- -- -- -- -- -- -- -- --
2019-05-29 14:00:00 -- -- -- -- -- -- -- -- --
2019-05-29 13:00:00 -- -- -- -- -- -- -- -- --
2019-05-29 12:00:00 -- -- -- -- -- -- -- -- --
2019-05-29 11:00:00 -- -- -- -- -- -- -- -- --
2019-05-29 10:00:00 -- -- -- -- -- -- -- -- --
2019-05-29 09:00:00 -- -- -- -- -- -- -- -- --
2019-05-29 08:00:00 -- -- -- -- -- -- -- -- --
2019-05-29 07:00:00 -- -- -- -- -- -- -- -- --
2019-05-29 06:00:00 -- -- -- -- -- -- -- -- --
2019-05-29 05:00:00 -- -- -- -- -- -- -- -- --
2019-05-29 04:00:00 -- -- -- -- -- -- -- -- --
2019-05-29 03:00:00 -- -- -- -- -- -- -- -- --
2019-05-29 02:00:00 -- -- -- -- -- -- -- -- --
2019-05-29 01:00:00 -- -- -- -- -- -- -- -- --
2019-05-29 00:00:00 -- -- -- -- -- -- -- -- --
2019-05-28 23:00:00 -- -- -- -- -- -- -- -- --
2019-05-28 22:00:00 -- -- -- -- -- -- -- -- --
2019-05-28 21:00:00 -- -- -- -- -- -- -- -- --
2019-05-28 20:00:00 -- -- -- -- -- -- -- -- --
2019-05-28 19:00:00 -- -- -- -- -- -- -- -- --
2019-05-28 18:00:00 -- -- -- -- -- -- -- -- --
2019-05-28 17:00:00 -- -- -- -- -- -- -- -- --
2019-05-28 16:00:00 -- -- -- -- -- -- -- -- --
2019-05-28 15:00:00 -- -- -- -- -- -- -- -- --
2019-05-28 14:00:00 -- -- -- -- -- -- -- -- --
2019-05-28 13:00:00 -- -- -- -- -- -- -- -- --
2019-05-28 12:00:00 -- -- -- -- -- -- -- -- --
2019-05-28 11:00:00 27.4 10 Nordeste 27 Nordeste 0 947.4 1.2 31
2019-05-28 10:00:00 24.8 22 Norte 33 Norte 0 947 1.3 40
2019-05-28 09:00:00 21.7 24 Norte 39 Norte 0 946.5 1 47
2019-05-28 08:00:00 20.2 23 Norte 44 Norte 0 946.2 0.7 49
2019-05-28 07:00:00 18.2 33 Norte 50 Norte 0 945.7 -0.1 64
2019-05-28 06:00:00 18.6 39 Norte 54 Norte 0 945.5 -0.9 64
2019-05-28 05:00:00 18.6 38 Norte 52 Nordeste 0 945.5 -0.9 66
2019-05-28 04:00:00 18 34 Norte 51 Norte 0 945.8 -1.4 67
2019-05-28 03:00:00 18.7 18 Norte 57 Nordeste 0 946.4 -1.3 57
2019-05-28 02:00:00 18.5 37 Norte 58 Norte 0 946.4 -1 62
2019-05-28 01:00:00 19.6 20 Norte 38 Norte 0 947.2 0.5 55
2019-05-28 00:00:00 21 14 Noroeste 24 Norte 0 947.7 1.4 49
2019-05-27 23:00:00 22.7 13 Norte 22 Norte 0 947.4 1.2 45
2019-05-27 22:00:00 24.8 5 Noroeste 22 Noroeste 0 946.7 0.6 39
2019-05-27 21:00:00 27.1 7 Noroeste 32 Noroeste 0 946.3 -0.1 33
2019-05-27 20:00:00 28.7 17 Norte 32 Noroeste 0 946.2 -0.5 27
2019-05-27 19:00:00 30.3 17 Noroeste 35 Noroeste 0 946.1 -1.1 23
2019-05-27 18:00:00 30.5 17 Norte 31 Norte 0 946.4 -1.3 23
2019-05-27 17:00:00 32.1 13 Noroeste 36 Norte 0 946.7 -1.5 21
2019-05-27 16:00:00 30.5 15 Norte 28 Nordeste 0 947.2 -1.5 23
2019-05-27 15:00:00 30.3 17 Norte 33 Norte 0 947.7 -1.1 20
2019-05-27 14:00:00 31.5 5 Noroeste 18 Norte 0 948.2 -0.7 18
2019-05-27 13:00:00 28.8 12 Norte 21 Norte 0 948.7 -0.1 20
2019-05-27 12:00:00 28.2 9 Noroeste 21 Norte 0 948.8 0 26
2019-05-27 11:00:00 27.5 11 Nordeste 16 Nordeste 0 948.9 0.5 28
2019-05-27 10:00:00 26.6 4 Noroeste 11 Norte 0 948.8 0.6 31
2019-05-27 09:00:00 22 2 Sur 10 Nordeste 0 948.8 0.7 47
2019-05-27 08:00:00 19.3 4 Este 10 Norte 0 948.4 0.3 45
2019-05-27 07:00:00 19.5 9 Nordeste 15 Norte 0 948.2 -0.3 41
2019-05-27 06:00:00 20.3 8 Norte 25 Norte 0 948.1 -0.9 37
2019-05-27 05:00:00 20.5 15 Norte 30 Norte 0 948.1 -1.2 35
2019-05-27 04:00:00 21.2 21 Norte 29 Norte 0 948.5 -1.1 33
2019-05-27 03:00:00 21.4 17 Norte 27 Nordeste 0 949 -1 33
2019-05-27 02:00:00 22 16 Nordeste 30 Nordeste 0 949.3 -0.4 32
2019-05-27 01:00:00 21.4 14 Norte 25 Nordeste 0 949.6 0.4 32
2019-05-27 00:00:00 21.8 13 Norte 21 Nordeste 0 950 1.1 30
2019-05-26 23:00:00 23 9 Norte 17 Noroeste 0 949.7 0.9 30
2019-05-26 22:00:00 23.1 10 Norte 19 Nordeste 0 949.2 0.3 31
2019-05-26 21:00:00 26.7 9 Nordeste 28 Nordeste 0 948.9 -0.3 25
2019-05-26 20:00:00 28.4 10 Norte 31 Norte 0 948.8 -0.7 22
2019-05-26 19:00:00 28.6 17 Norte 35 Norte 0 948.9 -0.9 22
2019-05-26 18:00:00 29.3 11 Norte 31 Norte 0 949.2 -1.2 20
2019-05-26 17:00:00 29.4 12 Norte 33 Noroeste 0 949.5 -1.6 22
2019-05-26 16:00:00 28.3 20 Norte 35 Norte 0 949.8 -1.6 22
2019-05-26 15:00:00 29.3 10 Este 23 Este 0 950.4 -1.2 23
2019-05-26 14:00:00 28.3 6 Nordeste 28 Este 0 951.1 -0.6 24
2019-05-26 13:00:00 27 11 Nordeste 26 Este 0 951.4 -0.3 24
2019-05-26 12:00:00 26.5 11 Este 25 Nordeste 0 951.6 0.1 25
2019-05-26 11:00:00 24.9 9 Nordeste 25 Nordeste 0 951.7 0.4 28
2019-05-26 10:00:00 22.9 12 Nordeste 27 Nordeste 0 951.7 0.9 31
2019-05-26 09:00:00 20.7 12 Nordeste 23 Nordeste 0 951.5 0.8 35
2019-05-26 08:00:00 18.7 9 Nordeste 15 Nordeste 0 951.3 0.5 37
2019-05-26 07:00:00 17.7 8 Nordeste 16 Nordeste 0 950.8 -0.3 37
2019-05-26 06:00:00 18.3 12 Nordeste 27 Norte 0 950.7 -0.5 36
2019-05-26 05:00:00 19 20 Nordeste 31 Norte 0 950.8 -0.6 35
2019-05-26 04:00:00 18.8 13 Nordeste 20 Norte 0 951.1 -0.6 36
2019-05-26 03:00:00 19.1 13 Nordeste 27 Nordeste 0 951.2 -0.5 35
2019-05-26 02:00:00 18.9 17 Nordeste 24 Nordeste 0 951.4 0.1 35
2019-05-26 01:00:00 18.1 8 Nordeste 17 Norte 0 951.7 1 36
2019-05-26 00:00:00 19.2 13 Norte 19 Norte 0 951.7 1.3 33
2019-05-25 23:00:00 19.8 14 Norte 19 Norte 0 951.3 1.3 30
2019-05-25 22:00:00 21 13 Norte 18 Norte 0 950.7 0.9 28
2019-05-25 21:00:00 23.7 6 Nordeste 26 Nordeste 0 950.4 0.6 27
2019-05-25 20:00:00 25.8 12 Nordeste 26 Nordeste 0 950 0.2 22
2019-05-25 19:00:00 27.1 6 Este 24 Nordeste 0 949.8 -0.4 20
2019-05-25 18:00:00 27.1 10 Norte 27 Este 0 949.8 -0.6 21
2019-05-25 17:00:00 26.4 13 Nordeste 32 Este 0 949.8 -0.9 19
2019-05-25 16:00:00 26.3 14 Nordeste 33 Norte 0 950.2 -0.7 21
2019-05-25 15:00:00 25.7 14 Norte 36 Norte 0 950.4 -0.3 23
2019-05-25 14:00:00 25.7 11 Este 29 Este 0 950.7 0 24
2019-05-25 13:00:00 24.9 12 Norte 26 Norte 0 950.9 0.4 31
2019-05-25 12:00:00 23.7 7 Sudeste 19 Sur 0 950.7 0.8 37
2019-05-25 11:00:00 23.1 8 Sudeste 22 Sudeste 0 950.7 1.3 39
2019-05-25 10:00:00 21.5 10 Sudeste 23 Sudeste 0 950.5 1.6 42
2019-05-25 09:00:00 19.6 3 Sudeste 12 Este 0 949.9 1.5 48
2019-05-25 08:00:00 17.6 6 Este 21 Este 0 949.4 1.4 48
2019-05-25 07:00:00 16.7 3 Sudoeste 19 Nordeste 0 948.9 1 43
2019-05-25 06:00:00 17.4 8 Nordeste 28 Nordeste 0 948.4 0.9 39
2019-05-25 05:00:00 18.4 19 Nordeste 40 Norte 0 948 0.1 35
2019-05-25 04:00:00 18.1 27 Norte 39 Norte 0 947.9 -0.3 34
2019-05-25 03:00:00 19 27 Norte 39 Norte 0 947.5 -0.7 32
2019-05-25 02:00:00 19.7 27 Norte 35 Nordeste 0 947.9 -0.1 30
2019-05-25 01:00:00 20.5 17 Nordeste 44 Nordeste 0 948.2 1.1 28
2019-05-25 00:00:00 20.2 17 Nordeste 25 Nordeste 0 948.2 1.6 31
2019-05-24 23:00:00 21.4 14 Norte 23 Norte 0 948 1.8 27
2019-05-24 22:00:00 22.1 11 Norte 23 Norte 0 947.1 1.1 24
2019-05-24 21:00:00 23.5 12 Norte 24 Norte 0 946.6 0.1 28
2019-05-24 20:00:00 25 13 Norte 32 Norte 0 946.2 -0.5 33
2019-05-24 19:00:00 26 17 Norte 31 Norte 0 946 -1.1 30
2019-05-24 18:00:00 26.2 15 Norte 37 Norte 0 946.5 -0.9 28
2019-05-24 17:00:00 26.3 11 Norte 35 Nordeste 0 946.7 -1.1 25
2019-05-24 16:00:00 25.7 13 Norte 39 Norte 0 947.1 -1.2 26
2019-05-24 15:00:00 23.9 16 Norte 35 Norte 0 947.4 -0.7 29
2019-05-24 14:00:00 22.5 14 Norte 35 Nordeste 0 947.8 -0.7 35
2019-05-24 13:00:00 21.3 12 Norte 33 Norte 0 948.3 0.1 38
2019-05-24 12:00:00 18.7 16 Norte 42 Norte 0 948.1 0.4 45
2019-05-24 11:00:00 17.2 17 Norte 44 Nordeste 0 948.5 1 51
2019-05-24 10:00:00 15.5 20 Norte 48 Norte 0 948.2 1.3 59
2019-05-24 09:00:00 12.2 28 Norte 53 Nordeste 0 947.7 0.7 73
2019-05-24 08:00:00 11.6 36 Norte 58 Norte 0 947.5 -0.4 76
2019-05-24 07:00:00 12.4 42 Norte 63 Norte 0 946.9 -1.5 73
2019-05-24 06:00:00 12 46 Norte 63 Norte 0 947 -2.1 74
2019-05-24 05:00:00 11.7 17 Norte 59 Nordeste 0 947.9 -1.9 78
2019-05-24 04:00:00 12.7 21 Norte 54 Nordeste 0 948.4 -1.8 79
2019-05-24 03:00:00 14 19 Norte 55 Nordeste 0 949.1 -1.3 81
2019-05-24 02:00:00 15.3 32 Norte 55 Norte 0 949.8 -0.7 77
2019-05-24 01:00:00 16.7 26 Norte 59 Norte 0 950.2 0.3 70
2019-05-24 00:00:00 18.2 30 Norte 51 Norte 0 950.4 0.5 66
2019-05-23 23:00:00 19.8 14 Norte 40 Norte 0 950.5 0.7 48
2019-05-23 22:00:00 21.1 21 Norte 35 Norte 0 949.9 0 33
2019-05-23 21:00:00 22.3 13 Norte 31 Norte 0 949.9 -0.3 30
2019-05-23 20:00:00 24.1 19 Norte 36 Norte 0 949.8 -0.6 27
2019-05-23 19:00:00 25.6 18 Noroeste 33 Norte 0 949.9 -0.8 24
2019-05-23 18:00:00 27.9 14 Noroeste 27 Noroeste 0 950.2 -1 24
2019-05-23 17:00:00 28.2 17 Noroeste 30 Noroeste 0 950.4 -1.3 24
2019-05-23 16:00:00 28.4 12 Norte 28 Noroeste 0 950.7 -1.5 28
2019-05-23 15:00:00 27.9 8 Oeste 23 Oeste 0 951.2 -1.2 29
2019-05-23 14:00:00 26.9 8 Noroeste 21 Noroeste 0 951.7 -0.5 32
2019-05-23 13:00:00 27.1 8 Oeste 16 Noroeste 0 952.2 0.1 32
2019-05-23 12:00:00 25.5 8 Sudoeste 19 Sudoeste 0 952.4 0.8 36
2019-05-23 11:00:00 24.4 6 Sur 14 Sudoeste 0 952.2 0.7 38
2019-05-23 10:00:00 22.2 4 Sur 11 Norte 0 952.1 1.1 48
2019-05-23 09:00:00 20.2 6 Nordeste 25 Norte 0 951.6 0.7 40
2019-05-23 08:00:00 18 6 Este 28 Nordeste 0 951.5 0.8 48
2019-05-23 07:00:00 18.3 20 Norte 35 Norte 0 951 0.3 47
2019-05-23 06:00:00 18.3 20 Norte 45 Norte 0 950.9 -0.3 53
2019-05-23 05:00:00 17.6 34 Norte 49 Norte 0 950.7 -0.8 63
2019-05-23 04:00:00 17.8 36 Norte 49 Norte 0 950.7 -1 65
2019-05-23 03:00:00 17.9 32 Norte 48 Nordeste 0 951.2 -0.5 68
2019-05-23 02:00:00 18.3 21 Norte 41 Norte 0 951.5 -0.1 65
2019-05-23 01:00:00 18.9 26 Norte 42 Norte 0 951.7 0.5 57
2019-05-23 00:00:00 20.1 14 Noroeste 27 Noroeste 0 951.7 1.2 46
2019-05-22 23:00:00 20.1 7 Noroeste 13 Noroeste 0 951.6 1.5 39
2019-05-22 22:00:00 21.8 6 Oeste 27 Oeste 0 951.2 1.1 36
2019-05-22 21:00:00 24 11 Oeste 24 Oeste 0 950.5 0.3 32
2019-05-22 20:00:00 26.6 10 Sudoeste 22 Sudoeste 0 950.1 -0.3 29
2019-05-22 19:00:00 27.8 9 Oeste 18 Sudoeste 0 950.1 -0.6 26
2019-05-22 18:00:00 27.7 9 Sur 17 Sur 0 950.2 -0.9 27
2019-05-22 17:00:00 27.2 8 Sudeste 19 Este 0 950.4 -0.9 28
2019-05-22 16:00:00 28.1 8 Oeste 28 Sudoeste 0 950.7 -0.8 26
2019-05-22 15:00:00 27.4 7 Sur 22 Sudoeste 0 951.1 -0.3 28
2019-05-22 14:00:00 25.4 8 Oeste 24 Sudoeste 0 951.3 0.1 31
2019-05-22 13:00:00 25.2 10 Sur 21 Sudeste 0 951.5 0.4 35
2019-05-22 12:00:00 23.3 12 Sudeste 24 Sudeste 0 951.4 0.8 42
2019-05-22 11:00:00 21.5 6 Sudeste 13 Sudeste 0 951.2 1.2 49
2019-05-22 10:00:00 19.7 6 Sudoeste 9 Sudoeste 0 951.1 1.9 56
2019-05-22 09:00:00 17.2 2 Noroeste 12 Sudoeste 0 950.6 1.4 63
2019-05-22 08:00:00 15.2 8 Oeste 15 Sudoeste 0 950 0.8 67
2019-05-22 07:00:00 16.1 10 Norte 17 Norte 0 949.2 -0.2 64
2019-05-22 06:00:00 16.7 4 Norte 31 Nordeste 0 949.2 -0.1 63
2019-05-22 05:00:00 15.6 21 Norte 42 Norte 0 949.2 -0.3 73
2019-05-22 04:00:00 14.9 24 Norte 42 Norte 0 949.4 -0.3 76
2019-05-22 03:00:00 15 34 Norte 50 Nordeste 0 949.3 -0.7 74
2019-05-22 02:00:00 15.6 24 Norte 51 Nordeste 0 949.5 -0.1 71
2019-05-22 01:00:00 16.5 24 Norte 41 Norte 0 949.7 0.8 68
2019-05-22 00:00:00 17.6 21 Norte 39 Norte 0 950 1.5 63
2019-05-21 23:00:00 18.7 17 Norte 29 Norte 0 949.6 1.5 50
2019-05-21 22:00:00 19.3 17 Norte 24 Norte 0 948.9 0.7 45
2019-05-21 21:00:00 21.2 13 Noroeste 22 Noroeste 0 948.5 0.4 38
2019-05-21 20:00:00 23 14 Norte 26 Noroeste 0 948.1 -0.2 33
2019-05-21 19:00:00 23.8 17 Norte 28 Norte 0 948.2 -0.4 33
2019-05-21 18:00:00 24.3 12 Norte 30 Noroeste 0 948.1 -0.8 31
2019-05-21 17:00:00 24.9 10 Nordeste 26 Norte 0 948.3 -1 30
2019-05-21 16:00:00 25.1 9 Noroeste 26 Norte 0 948.6 -0.8 29
2019-05-21 15:00:00 24.6 12 Oeste 23 Oeste 0 948.9 -0.6 32
2019-05-21 14:00:00 22.8 9 Norte 27 Norte 0 949.3 -0.2 37
2019-05-21 13:00:00 20.8 11 Norte 23 Norte 0 949.4 0.1 41
2019-05-21 12:00:00 19.4 13 Norte 23 Norte 0 949.5 0.9 46
2019-05-21 11:00:00 18 8 Norte 28 Nordeste 0 949.5 1.5 53
2019-05-21 10:00:00 15.5 18 Nordeste 36 Nordeste 0 949.3 1.9 56
2019-05-21 09:00:00 13.2 23 Nordeste 42 Norte 0 948.6 0.9 65
2019-05-21 08:00:00 11.7 30 Norte 51 Nordeste 0 948 0.1 73
2019-05-21 07:00:00 11.5 39 Norte 57 Norte 0 947.4 -0.1 72
2019-05-21 06:00:00 11.1 27 Norte 39 Norte 0 947.7 -0.6 83
2019-05-21 05:00:00 12.5 32 Norte 51 Norte 0 947.9 -0.4 71
2019-05-21 04:00:00 12.6 33 Norte 52 Norte 0 947.5 -0.8 76
2019-05-21 03:00:00 13.3 23 Norte 46 Norte 0 948.3 0 71
2019-05-21 02:00:00 14.3 26 Norte 51 Norte 0 948.3 0.2 67
2019-05-21 01:00:00 15.5 31 Norte 45 Norte 0 948.3 0.9 64
2019-05-21 00:00:00 16.3 18 Noroeste 32 Noroeste 0 948.3 1.4 57
2019-05-20 23:00:00 17.6 18 Noroeste 28 Noroeste 0 948.1 1.5 43
2019-05-20 22:00:00 18.2 13 Norte 22 Noroeste 0 947.4 0.6 36
2019-05-20 21:00:00 20 12 Noroeste 28 Norte 0 946.9 0.2 33
2019-05-20 20:00:00 22.3 11 Noroeste 28 Norte 0 946.6 -0.3 29
2019-05-20 19:00:00 23.1 12 Noroeste 30 Norte 0 946.8 -0.4 25
2019-05-20 18:00:00 23.9 10 Noroeste 27 Noroeste 0 946.7 -0.9 24
2019-05-20 17:00:00 24.7 9 Oeste 31 Noroeste 0 946.9 -0.9 22
2019-05-20 16:00:00 23.5 11 Norte 33 Noroeste 0 947.2 -0.5 24
2019-05-20 15:00:00 22.1 15 Norte 33 Norte 0 947.6 -0.2 24
2019-05-20 14:00:00 21.3 12 Noroeste 30 Noroeste 0 947.8 0.1 24
2019-05-20 13:00:00 20.7 8 Norte 23 Noroeste 0 947.7 0.2 25
2019-05-20 12:00:00 19.1 12 Noroeste 26 Noroeste 0 947.8 1 28
2019-05-20 11:00:00 17.7 9 Oeste 39 Norte 0 947.7 1.3 31
2019-05-20 10:00:00 15.1 19 Noroeste 38 Norte 0 947.5 1.2 33
2019-05-20 09:00:00 13.4 6 Norte 17 Nordeste 0 946.8 0.5 40
2019-05-20 08:00:00 10.6 3 Este 16 Nordeste 0 946.4 0.2 49
2019-05-20 07:00:00 10.3 9 Nordeste 15 Nordeste 0 946.3 -0.1 50
2019-05-20 06:00:00 11.5 10 Norte 36 Nordeste 0 946.3 -0.6 50
2019-05-20 05:00:00 12.9 24 Norte 39 Norte 0 946.2 -1 43
2019-05-20 04:00:00 12.4 26 Norte 40 Norte 0 946.4 -1.1 60
2019-05-20 03:00:00 13.2 23 Norte 38 Norte 0 946.9 -0.7 58
2019-05-20 02:00:00 14.2 27 Norte 42 Norte 0 947.2 -0.3 59
2019-05-20 01:00:00 15.3 23 Norte 36 Norte 0 947.5 0.5 56
2019-05-20 00:00:00 15.8 17 Norte 27 Norte 0 947.6 0.9 55
2019-05-19 23:00:00 15.5 14 Norte 19 Norte 0 947.5 1.1 54
2019-05-19 22:00:00 16.2 10 Norte 18 Noroeste 0 947 0.7 51
2019-05-19 21:00:00 18.6 6 Noroeste 25 Noroeste 0 946.7 0.1 44
2019-05-19 20:00:00 19.5 12 Noroeste 27 Noroeste 0 946.4 -0.4 40
2019-05-19 19:00:00 20.7 12 Noroeste 27 Noroeste 0 946.3 -1 38
2019-05-19 18:00:00 20.5 14 Noroeste 30 Noroeste 0 946.6 -0.8 38
2019-05-19 17:00:00 20.6 17 Noroeste 35 Norte 0 946.8 -0.8 35
2019-05-19 16:00:00 21.3 16 Noroeste 37 Norte 0 947.3 -0.3 33
2019-05-19 15:00:00 19.9 19 Norte 36 Norte 0 947.4 -0.1 38
2019-05-19 14:00:00 20.3 16 Noroeste 36 Noroeste 0 947.6 -0.2 35
2019-05-19 13:00:00 19.1 10 Norte 33 Noroeste 0 947.6 0.2 39
2019-05-19 12:00:00 15.9 24 Norte 44 Norte 0 947.5 0.2 40
2019-05-19 11:00:00 14.6 18 Norte 41 Norte 0 947.8 0.6 41
2019-05-19 10:00:00 12.4 20 Norte 42 Norte 0 947.4 0.4 54
2019-05-19 09:00:00 10.2 18 Norte 43 Norte 0 947.3 0.8 65
2019-05-19 08:00:00 8.6 18 Norte 33 Norte 0 947.2 0.4 76
2019-05-19 07:00:00 9 16 Norte 31 Norte 0 947 -0.1 76
2019-05-19 06:00:00 9.3 17 Norte 34 Norte 0 946.5 -0.8 76
2019-05-19 05:00:00 9.7 14 Norte 34 Norte 0 946.8 -0.7 73
2019-05-19 04:00:00 10.2 10 Noroeste 41 Norte 0 947.1 -0.8 71
2019-05-19 03:00:00 10.6 15 Norte 41 Norte 0 947.3 -0.8 67
2019-05-19 02:00:00 11.1 28 Norte 46 Norte 0 947.5 -0.9 63
2019-05-19 01:00:00 11.7 25 Norte 48 Norte 0 947.9 -0.4 59
2019-05-19 00:00:00 12.2 26 Norte 40 Norte 0 948.1 0.3 54
2019-05-18 23:00:00 12.6 12 Norte 31 Noroeste 0 948.4 0.9 52
2019-05-18 22:00:00 13.4 14 Noroeste 29 Norte 0 948.3 1 50
2019-05-18 21:00:00 14.9 10 Noroeste 28 Noroeste 0 947.8 0.7 46
2019-05-18 20:00:00 16.8 12 Noroeste 36 Norte 0 947.5 0.4 40
2019-05-18 19:00:00 17.6 14 Noroeste 39 Oeste 0 947.3 -0.1 36
2019-05-18 18:00:00 17.4 18 Noroeste 42 Noroeste 0 947.1 -0.4 37
2019-05-18 17:00:00 18.4 20 Noroeste 51 Norte 0 947.1 -0.6 35
2019-05-18 16:00:00 17.6 24 Norte 44 Norte 0 947.4 -0.2 38
2019-05-18 15:00:00 17.1 22 Norte 45 Nordeste 0 947.5 -0.1 35
2019-05-18 14:00:00 16.5 19 Norte 49 Noroeste 0 947.7 0.2 35
2019-05-18 13:00:00 15.3 24 Norte 44 Noroeste 0 947.6 0.4 41
2019-05-18 12:00:00 14.6 16 Norte 49 Norte 0 947.6 0.8 43
2019-05-18 11:00:00 12.5 22 Norte 48 Norte 0 947.5 1 53
2019-05-18 10:00:00 10.7 16 Norte 44 Norte 0 947.2 1.1 57
2019-05-18 09:00:00 8.7 24 Norte 46 Norte 0 946.8 1 71
2019-05-18 08:00:00 7.7 27 Norte 45 Norte 0 946.5 0.4 77
2019-05-18 07:00:00 7.5 26 Norte 48 Norte 0 946.1 0.4 78
2019-05-18 06:00:00 8 29 Norte 47 Norte 0 945.8 -0.9 76
2019-05-18 05:00:00 8.4 21 Norte 56 Norte 0 946.1 -0.8 75
2019-05-18 04:00:00 9.3 35 Norte 58 Norte 0 945.7 -1.8 72
2019-05-18 03:00:00 9.7 36 Norte 56 Norte 0 946.7 -1.1 69
2019-05-18 02:00:00 10.3 26 Norte 52 Norte 0 946.9 -0.8 67
2019-05-18 01:00:00 11.1 32 Norte 49 Norte 0 947.5 0.1 62
2019-05-18 00:00:00 12.1 30 Norte 53 Norte 0 947.8 0.7 55
2019-05-17 23:00:00 13.1 23 Norte 44 Norte 0 947.7 0.7 52
2019-05-17 22:00:00 14 14 Norte 29 Noroeste 0 947.4 0.3 51
2019-05-17 21:00:00 15.7 12 Noroeste 31 Noroeste 0 947.1 -0.1 44
2019-05-17 20:00:00 17.4 14 Norte 35 Norte 0 947 -0.5 40
2019-05-17 19:00:00 17.9 18 Noroeste 39 Nordeste 0 947.1 -0.8 38
2019-05-17 18:00:00 17.7 21 Norte 43 Norte 0 947.2 -0.7 37
2019-05-17 17:00:00 17.7 23 Norte 45 Noroeste 0 947.5 -0.8 38
2019-05-17 16:00:00 16.9 22 Norte 45 Norte 0 947.9 -0.6 39
2019-05-17 15:00:00 17.2 30 Norte 50 Norte 0 947.9 -0.3 38
2019-05-17 14:00:00 15 25 Norte 47 Norte 0 948.3 1.1 45
2019-05-17 13:00:00 13.6 23 Norte 48 Norte 0 948.5 1.2 51
2019-05-17 12:00:00 12.2 27 Norte 56 Norte 0 948.2 1.3 57
2019-05-17 11:00:00 10.3 36 Norte 63 Norte 0 947.2 1.2 68
2019-05-17 10:00:00 9.4 36 Norte 63 Nordeste 0 947.3 1.5 76
2019-05-17 09:00:00 8.6 39 Norte 69 Norte 0 946.9 0.9 84
2019-05-17 08:00:00 8 42 Norte 75 Norte 0 946 -0.1 84
2019-05-17 07:00:00 7.9 41 Norte 64 Norte 0 945.8 -0.6 86
2019-05-17 06:00:00 8.3 34 Norte 67 Norte 0 946 -0.6 84
2019-05-17 05:00:00 8.5 43 Norte 62 Norte 0 946.1 -0.4 81
2019-05-17 04:00:00 8.7 31 Norte 56 Norte 0 946.4 -0.2 74
2019-05-17 03:00:00 9.4 31 Norte 53 Norte 0 946.6 -0.3 68
2019-05-17 02:00:00 10.4 28 Norte 59 Noroeste 0 946.5 0.1 64
2019-05-17 01:00:00 11.3 27 Norte -- -- 0 946.6 0.8 67
2019-05-17 00:00:00 12.4 17 Norte -- -- 0 946.9 1.8 63